sensor_id;sensor_type;location;lat;lon;timestamp;temperature;humidity
60868;DHT22;46702;48.370;10.794;2023-06-14T00:00:55;12.00;99.90
60868;DHT22;46702;48.370;10.794;2023-06-14T00:03:22;11.80;99.90
60868;DHT22;46702;48.370;10.794;2023-06-14T00:05:50;11.60;99.90
60868;DHT22;46702;48.370;10.794;2023-06-14T00:08:15;11.60;99.90
60868;DHT22;46702;48.370;10.794;2023-06-14T00:10:41;11.60;99.90
60868;DHT22;46702;48.370;10.794;2023-06-14T00:13:09;11.60;99.90
60868;DHT22;46702;48.370;10.794;2023-06-14T00:15:35;11.70;99.90
60868;DHT22;46702;48.370;10.794;2023-06-14T00:18:02;11.70;99.90
60868;DHT22;46702;48.370;10.794;2023-06-14T00:20:29;11.70;99.90
60868;DHT22;46702;48.370;10.794;2023-06-14T00:22:56;11.70;99.90
60868;DHT22;46702;48.370;10.794;2023-06-14T00:25:23;11.60;99.90
60868;DHT22;46702;48.370;10.794;2023-06-14T00:27:51;11.60;99.90
60868;DHT22;46702;48.370;10.794;2023-06-14T00:30:16;11.60;99.90
60868;DHT22;46702;48.370;10.794;2023-06-14T00:32:45;11.60;99.90
60868;DHT22;46702;48.370;10.794;2023-06-14T00:35:11;11.50;99.90
60868;DHT22;46702;48.370;10.794;2023-06-14T00:37:37;11.40;99.90
60868;DHT22;46702;48.370;10.794;2023-06-14T00:40:04;11.40;99.90
60868;DHT22;46702;48.370;10.794;2023-06-14T00:42:30;11.20;99.90
60868;DHT22;46702;48.370;10.794;2023-06-14T00:44:56;11.10;99.90
60868;DHT22;46702;48.370;10.794;2023-06-14T00:47:22;11.10;99.90
60868;DHT22;46702;48.370;10.794;2023-06-14T00:49:51;11.10;99.90
60868;DHT22;46702;48.370;10.794;2023-06-14T00:52:18;11.00;99.90
60868;DHT22;46702;48.370;10.794;2023-06-14T00:54:44;11.00;99.90
60868;DHT22;46702;48.370;10.794;2023-06-14T00:57:10;11.00;99.90
60868;DHT22;46702;48.370;10.794;2023-06-14T00:59:47;11.10;99.90
60868;DHT22;46702;48.370;10.794;2023-06-14T01:02:13;11.20;99.90
60868;DHT22;46702;48.370;10.794;2023-06-14T01:04:45;11.20;99.90
60868;DHT22;46702;48.370;10.794;2023-06-14T01:13:15;10.80;99.90
60868;DHT22;46702;48.370;10.794;2023-06-14T01:15:44;10.60;99.90
60868;DHT22;46702;48.370;10.794;2023-06-14T01:18:10;10.60;99.90
60868;DHT22;46702;48.370;10.794;2023-06-14T01:20:43;10.60;99.90
60868;DHT22;46702;48.370;10.794;2023-06-14T01:23:11;10.50;99.90
60868;DHT22;46702;48.370;10.794;2023-06-14T01:25:40;10.60;99.90
60868;DHT22;46702;48.370;10.794;2023-06-14T01:28:09;10.50;99.90
60868;DHT22;46702;48.370;10.794;2023-06-14T01:30:38;10.40;99.90
60868;DHT22;46702;48.370;10.794;2023-06-14T01:33:04;10.50;99.90
60868;DHT22;46702;48.370;10.794;2023-06-14T01:35:31;10.40;99.90
60868;DHT22;46702;48.370;10.794;2023-06-14T01:37:57;10.30;99.90
60868;DHT22;46702;48.370;10.794;2023-06-14T01:40:24;10.30;99.90
60868;DHT22;46702;48.370;10.794;2023-06-14T01:42:51;10.30;99.90
60868;DHT22;46702;48.370;10.794;2023-06-14T01:45:18;10.30;99.90
60868;DHT22;46702;48.370;10.794;2023-06-14T01:47:44;10.30;99.90
60868;DHT22;46702;48.370;10.794;2023-06-14T01:50:10;10.30;99.90
60868;DHT22;46702;48.370;10.794;2023-06-14T01:52:39;10.40;99.90
60868;DHT22;46702;48.370;10.794;2023-06-14T01:55:06;10.40;99.90
60868;DHT22;46702;48.370;10.794;2023-06-14T01:57:32;10.50;99.90
60868;DHT22;46702;48.370;10.794;2023-06-14T01:59:57;10.50;99.90
60868;DHT22;46702;48.370;10.794;2023-06-14T02:02:23;10.50;99.90
60868;DHT22;46702;48.370;10.794;2023-06-14T02:04:48;10.40;99.90
60868;DHT22;46702;48.370;10.794;2023-06-14T02:07:14;10.30;99.90
60868;DHT22;46702;48.370;10.794;2023-06-14T02:09:41;10.30;99.90
60868;DHT22;46702;48.370;10.794;2023-06-14T02:12:07;10.30;99.90
60868;DHT22;46702;48.370;10.794;2023-06-14T02:14:33;10.30;99.90
60868;DHT22;46702;48.370;10.794;2023-06-14T02:16:59;10.30;99.90
60868;DHT22;46702;48.370;10.794;2023-06-14T02:19:26;10.30;99.90
60868;DHT22;46702;48.370;10.794;2023-06-14T02:21:52;10.30;99.90
60868;DHT22;46702;48.370;10.794;2023-06-14T02:24:18;10.30;99.90
60868;DHT22;46702;48.370;10.794;2023-06-14T02:26:43;10.40;99.90
60868;DHT22;46702;48.370;10.794;2023-06-14T02:29:09;10.40;99.90
60868;DHT22;46702;48.370;10.794;2023-06-14T02:31:38;10.30;99.90
60868;DHT22;46702;48.370;10.794;2023-06-14T02:34:03;10.20;99.90
60868;DHT22;46702;48.370;10.794;2023-06-14T02:36:29;10.00;99.90
60868;DHT22;46702;48.370;10.794;2023-06-14T02:38:56;9.90;99.90
60868;DHT22;46702;48.370;10.794;2023-06-14T02:41:23;9.90;99.90
60868;DHT22;46702;48.370;10.794;2023-06-14T02:43:49;9.90;99.90
60868;DHT22;46702;48.370;10.794;2023-06-14T02:46:15;9.80;99.90
60868;DHT22;46702;48.370;10.794;2023-06-14T02:48:41;9.80;99.90
60868;DHT22;46702;48.370;10.794;2023-06-14T02:51:06;9.80;99.90
60868;DHT22;46702;48.370;10.794;2023-06-14T02:53:34;9.80;99.90
60868;DHT22;46702;48.370;10.794;2023-06-14T02:56:00;9.80;99.90
60868;DHT22;46702;48.370;10.794;2023-06-14T02:58:26;9.80;99.90
60868;DHT22;46702;48.370;10.794;2023-06-14T03:00:52;9.90;99.90
60868;DHT22;46702;48.370;10.794;2023-06-14T03:03:18;9.80;99.90
60868;DHT22;46702;48.370;10.794;2023-06-14T03:05:46;9.70;99.90
60868;DHT22;46702;48.370;10.794;2023-06-14T03:08:13;9.60;99.90
60868;DHT22;46702;48.370;10.794;2023-06-14T03:10:47;9.60;99.90
60868;DHT22;46702;48.370;10.794;2023-06-14T03:13:14;9.40;99.90
60868;DHT22;46702;48.370;10.794;2023-06-14T03:15:41;9.30;99.90
60868;DHT22;46702;48.370;10.794;2023-06-14T03:18:10;9.40;99.90
60868;DHT22;46702;48.370;10.794;2023-06-14T03:20:37;9.30;99.90
60868;DHT22;46702;48.370;10.794;2023-06-14T03:23:05;9.30;99.90
60868;DHT22;46702;48.370;10.794;2023-06-14T03:25:32;9.30;99.90
60868;DHT22;46702;48.370;10.794;2023-06-14T03:28:01;9.40;99.90
60868;DHT22;46702;48.370;10.794;2023-06-14T03:30:26;9.40;99.90
60868;DHT22;46702;48.370;10.794;2023-06-14T03:32:52;9.40;99.90
60868;DHT22;46702;48.370;10.794;2023-06-14T03:35:21;9.40;99.90
60868;DHT22;46702;48.370;10.794;2023-06-14T03:37:47;9.00;99.90
60868;DHT22;46702;48.370;10.794;2023-06-14T03:40:15;8.80;99.90
60868;DHT22;46702;48.370;10.794;2023-06-14T03:42:41;8.70;99.90
60868;DHT22;46702;48.370;10.794;2023-06-14T03:45:07;8.70;99.90
60868;DHT22;46702;48.370;10.794;2023-06-14T03:47:34;8.80;99.90
60868;DHT22;46702;48.370;10.794;2023-06-14T03:50:01;8.80;99.90
60868;DHT22;46702;48.370;10.794;2023-06-14T03:52:28;8.90;99.90
60868;DHT22;46702;48.370;10.794;2023-06-14T03:54:53;9.10;99.90
60868;DHT22;46702;48.370;10.794;2023-06-14T03:57:19;9.00;99.90
60868;DHT22;46702;48.370;10.794;2023-06-14T03:59:51;9.20;99.90
60868;DHT22;46702;48.370;10.794;2023-06-14T04:02:17;9.30;99.90
60868;DHT22;46702;48.370;10.794;2023-06-14T04:04:44;9.40;99.90
60868;DHT22;46702;48.370;10.794;2023-06-14T04:07:14;9.50;99.90
60868;DHT22;46702;48.370;10.794;2023-06-14T04:09:41;9.60;99.90
60868;DHT22;46702;48.370;10.794;2023-06-14T04:12:07;9.70;99.90
60868;DHT22;46702;48.370;10.794;2023-06-14T04:14:37;9.80;99.90
60868;DHT22;46702;48.370;10.794;2023-06-14T04:17:03;9.70;99.90
60868;DHT22;46702;48.370;10.794;2023-06-14T04:19:29;9.80;99.90
60868;DHT22;46702;48.370;10.794;2023-06-14T04:21:54;9.90;99.90
60868;DHT22;46702;48.370;10.794;2023-06-14T04:24:20;9.80;99.90
60868;DHT22;46702;48.370;10.794;2023-06-14T04:26:46;9.60;99.90
60868;DHT22;46702;48.370;10.794;2023-06-14T04:29:17;9.50;99.90
60868;DHT22;46702;48.370;10.794;2023-06-14T04:31:45;9.50;99.90
60868;DHT22;46702;48.370;10.794;2023-06-14T04:34:12;9.40;99.90
60868;DHT22;46702;48.370;10.794;2023-06-14T04:36:44;9.30;99.90
60868;DHT22;46702;48.370;10.794;2023-06-14T04:39:19;9.50;99.90
60868;DHT22;46702;48.370;10.794;2023-06-14T04:41:45;9.70;99.90
60868;DHT22;46702;48.370;10.794;2023-06-14T04:44:12;9.80;99.90
60868;DHT22;46702;48.370;10.794;2023-06-14T04:46:39;10.00;99.90
60868;DHT22;46702;48.370;10.794;2023-06-14T04:49:15;10.10;99.90
60868;DHT22;46702;48.370;10.794;2023-06-14T04:51:45;10.30;99.90
60868;DHT22;46702;48.370;10.794;2023-06-14T04:54:11;10.40;99.90
60868;DHT22;46702;48.370;10.794;2023-06-14T04:56:43;10.50;99.90
60868;DHT22;46702;48.370;10.794;2023-06-14T04:59:10;10.60;99.90
60868;DHT22;46702;48.370;10.794;2023-06-14T05:01:40;10.80;99.90
60868;DHT22;46702;48.370;10.794;2023-06-14T05:04:06;10.90;99.90
60868;DHT22;46702;48.370;10.794;2023-06-14T05:06:32;11.10;99.90
60868;DHT22;46702;48.370;10.794;2023-06-14T05:08:58;11.20;99.90
60868;DHT22;46702;48.370;10.794;2023-06-14T05:11:24;11.30;99.90
60868;DHT22;46702;48.370;10.794;2023-06-14T05:13:50;11.30;99.90
60868;DHT22;46702;48.370;10.794;2023-06-14T05:16:16;11.40;99.90
60868;DHT22;46702;48.370;10.794;2023-06-14T05:18:45;11.40;99.90
60868;DHT22;46702;48.370;10.794;2023-06-14T05:21:13;11.60;99.90
60868;DHT22;46702;48.370;10.794;2023-06-14T05:23:44;11.80;99.90
60868;DHT22;46702;48.370;10.794;2023-06-14T05:26:10;12.00;99.90
60868;DHT22;46702;48.370;10.794;2023-06-14T05:28:36;12.20;99.90
60868;DHT22;46702;48.370;10.794;2023-06-14T05:31:02;12.30;99.90
60868;DHT22;46702;48.370;10.794;2023-06-14T05:33:27;12.40;99.90
60868;DHT22;46702;48.370;10.794;2023-06-14T05:35:53;12.60;99.90
60868;DHT22;46702;48.370;10.794;2023-06-14T05:38:19;12.70;99.90
60868;DHT22;46702;48.370;10.794;2023-06-14T05:40:45;12.80;99.90
60868;DHT22;46702;48.370;10.794;2023-06-14T05:43:11;12.90;99.90
60868;DHT22;46702;48.370;10.794;2023-06-14T05:45:37;13.00;99.90
60868;DHT22;46702;48.370;10.794;2023-06-14T05:48:03;13.20;99.90
60868;DHT22;46702;48.370;10.794;2023-06-14T05:50:29;13.40;99.90
60868;DHT22;46702;48.370;10.794;2023-06-14T05:52:54;13.60;99.90
60868;DHT22;46702;48.370;10.794;2023-06-14T05:55:20;13.70;99.90
60868;DHT22;46702;48.370;10.794;2023-06-14T05:57:46;13.90;99.90
60868;DHT22;46702;48.370;10.794;2023-06-14T06:00:16;14.00;99.90
60868;DHT22;46702;48.370;10.794;2023-06-14T06:02:43;14.20;99.90
60868;DHT22;46702;48.370;10.794;2023-06-14T06:05:09;14.40;99.90
60868;DHT22;46702;48.370;10.794;2023-06-14T06:07:36;14.50;99.90
60868;DHT22;46702;48.370;10.794;2023-06-14T06:10:06;14.60;99.90
60868;DHT22;46702;48.370;10.794;2023-06-14T06:12:34;14.80;99.90
60868;DHT22;46702;48.370;10.794;2023-06-14T06:15:00;15.00;99.90
60868;DHT22;46702;48.370;10.794;2023-06-14T06:17:26;15.20;99.90
60868;DHT22;46702;48.370;10.794;2023-06-14T06:19:53;15.40;99.90
60868;DHT22;46702;48.370;10.794;2023-06-14T06:22:21;15.50;99.90
60868;DHT22;46702;48.370;10.794;2023-06-14T06:25:14;15.70;99.90
60868;DHT22;46702;48.370;10.794;2023-06-14T06:27:50;15.90;99.90
60868;DHT22;46702;48.370;10.794;2023-06-14T06:30:19;16.00;99.90
60868;DHT22;46702;48.370;10.794;2023-06-14T06:32:48;16.00;99.90
60868;DHT22;46702;48.370;10.794;2023-06-14T06:35:29;16.10;99.90
60868;DHT22;46702;48.370;10.794;2023-06-14T06:37:56;16.20;99.90
60868;DHT22;46702;48.370;10.794;2023-06-14T06:40:22;16.30;99.90
60868;DHT22;46702;48.370;10.794;2023-06-14T06:42:47;16.40;99.90
60868;DHT22;46702;48.370;10.794;2023-06-14T06:45:13;16.50;99.90
60868;DHT22;46702;48.370;10.794;2023-06-14T06:47:39;16.60;99.90
60868;DHT22;46702;48.370;10.794;2023-06-14T06:50:05;16.60;99.90
60868;DHT22;46702;48.370;10.794;2023-06-14T06:52:31;16.80;99.90
60868;DHT22;46702;48.370;10.794;2023-06-14T06:54:57;16.90;99.90
60868;DHT22;46702;48.370;10.794;2023-06-14T06:57:22;16.90;99.90
60868;DHT22;46702;48.370;10.794;2023-06-14T06:59:49;17.00;99.90
60868;DHT22;46702;48.370;10.794;2023-06-14T07:02:15;17.00;99.90
60868;DHT22;46702;48.370;10.794;2023-06-14T07:04:40;17.10;99.90
60868;DHT22;46702;48.370;10.794;2023-06-14T07:07:06;17.10;99.90
60868;DHT22;46702;48.370;10.794;2023-06-14T07:09:32;17.30;99.90
60868;DHT22;46702;48.370;10.794;2023-06-14T07:11:57;17.40;99.90
60868;DHT22;46702;48.370;10.794;2023-06-14T07:14:23;17.40;99.90
60868;DHT22;46702;48.370;10.794;2023-06-14T07:16:49;17.50;99.90
60868;DHT22;46702;48.370;10.794;2023-06-14T07:19:15;17.60;99.90
60868;DHT22;46702;48.370;10.794;2023-06-14T07:21:41;17.70;99.90
60868;DHT22;46702;48.370;10.794;2023-06-14T07:24:06;17.80;99.90
60868;DHT22;46702;48.370;10.794;2023-06-14T07:26:33;17.80;99.90
60868;DHT22;46702;48.370;10.794;2023-06-14T07:28:59;17.90;99.90
60868;DHT22;46702;48.370;10.794;2023-06-14T07:31:24;18.00;99.90
60868;DHT22;46702;48.370;10.794;2023-06-14T07:33:50;18.10;99.90
60868;DHT22;46702;48.370;10.794;2023-06-14T07:36:15;18.20;99.90
60868;DHT22;46702;48.370;10.794;2023-06-14T07:38:43;18.20;99.90
60868;DHT22;46702;48.370;10.794;2023-06-14T07:41:09;18.40;99.90
60868;DHT22;46702;48.370;10.794;2023-06-14T07:43:34;18.40;99.90
60868;DHT22;46702;48.370;10.794;2023-06-14T07:46:00;18.50;99.90
60868;DHT22;46702;48.370;10.794;2023-06-14T07:48:26;18.60;99.90
60868;DHT22;46702;48.370;10.794;2023-06-14T07:50:52;18.80;99.90
60868;DHT22;46702;48.370;10.794;2023-06-14T07:53:17;18.80;99.90
60868;DHT22;46702;48.370;10.794;2023-06-14T07:55:43;19.00;99.90
60868;DHT22;46702;48.370;10.794;2023-06-14T07:58:09;19.20;99.90
60868;DHT22;46702;48.370;10.794;2023-06-14T08:00:35;19.40;99.90
60868;DHT22;46702;48.370;10.794;2023-06-14T08:03:01;19.40;99.90
60868;DHT22;46702;48.370;10.794;2023-06-14T08:05:27;19.60;99.90
60868;DHT22;46702;48.370;10.794;2023-06-14T08:07:54;19.60;99.90
60868;DHT22;46702;48.370;10.794;2023-06-14T08:10:20;19.90;99.90
60868;DHT22;46702;48.370;10.794;2023-06-14T08:12:46;19.80;99.90
60868;DHT22;46702;48.370;10.794;2023-06-14T08:15:12;19.70;99.90
60868;DHT22;46702;48.370;10.794;2023-06-14T08:17:37;19.80;99.90
60868;DHT22;46702;48.370;10.794;2023-06-14T08:20:03;19.80;99.90
60868;DHT22;46702;48.370;10.794;2023-06-14T08:22:30;19.70;99.90
60868;DHT22;46702;48.370;10.794;2023-06-14T08:24:59;19.80;99.90
60868;DHT22;46702;48.370;10.794;2023-06-14T08:27:27;19.90;99.90
60868;DHT22;46702;48.370;10.794;2023-06-14T08:29:53;20.00;99.90
60868;DHT22;46702;48.370;10.794;2023-06-14T08:32:19;20.10;99.90
60868;DHT22;46702;48.370;10.794;2023-06-14T08:34:45;20.20;99.90
60868;DHT22;46702;48.370;10.794;2023-06-14T08:37:11;20.20;99.90
60868;DHT22;46702;48.370;10.794;2023-06-14T08:39:37;20.40;99.90
60868;DHT22;46702;48.370;10.794;2023-06-14T08:42:03;20.40;99.90
60868;DHT22;46702;48.370;10.794;2023-06-14T08:44:30;20.40;99.90
60868;DHT22;46702;48.370;10.794;2023-06-14T08:47:00;20.40;99.90
60868;DHT22;46702;48.370;10.794;2023-06-14T08:49:26;20.50;99.90
60868;DHT22;46702;48.370;10.794;2023-06-14T08:51:59;20.50;99.90
60868;DHT22;46702;48.370;10.794;2023-06-14T08:54:28;20.50;99.90
60868;DHT22;46702;48.370;10.794;2023-06-14T08:56:57;20.60;99.90
60868;DHT22;46702;48.370;10.794;2023-06-14T08:59:25;20.70;99.90
60868;DHT22;46702;48.370;10.794;2023-06-14T09:01:52;20.70;99.90
60868;DHT22;46702;48.370;10.794;2023-06-14T09:04:18;20.80;99.90
60868;DHT22;46702;48.370;10.794;2023-06-14T09:06:45;20.80;99.90
60868;DHT22;46702;48.370;10.794;2023-06-14T09:09:10;20.90;99.90
60868;DHT22;46702;48.370;10.794;2023-06-14T09:11:36;21.00;99.90
60868;DHT22;46702;48.370;10.794;2023-06-14T09:14:02;21.20;99.90
60868;DHT22;46702;48.370;10.794;2023-06-14T09:16:28;21.50;99.90
60868;DHT22;46702;48.370;10.794;2023-06-14T09:18:54;21.50;99.90
60868;DHT22;46702;48.370;10.794;2023-06-14T09:21:19;21.40;99.90
60868;DHT22;46702;48.370;10.794;2023-06-14T09:23:47;21.30;99.90
60868;DHT22;46702;48.370;10.794;2023-06-14T09:26:15;21.50;99.90
60868;DHT22;46702;48.370;10.794;2023-06-14T09:28:42;21.40;99.90
60868;DHT22;46702;48.370;10.794;2023-06-14T09:31:11;21.60;99.90
60868;DHT22;46702;48.370;10.794;2023-06-14T09:33:36;21.60;99.90
60868;DHT22;46702;48.370;10.794;2023-06-14T09:36:03;22.00;99.90
60868;DHT22;46702;48.370;10.794;2023-06-14T09:38:29;22.10;99.90
60868;DHT22;46702;48.370;10.794;2023-06-14T09:40:58;22.00;99.90
60868;DHT22;46702;48.370;10.794;2023-06-14T09:43:24;21.80;99.90
60868;DHT22;46702;48.370;10.794;2023-06-14T09:45:53;21.90;99.90
60868;DHT22;46702;48.370;10.794;2023-06-14T09:48:19;22.00;99.90
60868;DHT22;46702;48.370;10.794;2023-06-14T09:50:46;22.60;99.90
60868;DHT22;46702;48.370;10.794;2023-06-14T09:53:13;22.60;99.90
60868;DHT22;46702;48.370;10.794;2023-06-14T09:55:41;22.40;99.90
60868;DHT22;46702;48.370;10.794;2023-06-14T09:58:07;22.40;99.90
60868;DHT22;46702;48.370;10.794;2023-06-14T10:00:34;22.60;99.90
60868;DHT22;46702;48.370;10.794;2023-06-14T10:03:06;22.90;99.90
60868;DHT22;46702;48.370;10.794;2023-06-14T10:05:35;22.60;99.90
60868;DHT22;46702;48.370;10.794;2023-06-14T10:08:08;22.70;99.90
60868;DHT22;46702;48.370;10.794;2023-06-14T10:10:34;22.70;99.90
60868;DHT22;46702;48.370;10.794;2023-06-14T10:13:00;22.40;99.90
60868;DHT22;46702;48.370;10.794;2023-06-14T10:15:42;22.60;99.90
60868;DHT22;46702;48.370;10.794;2023-06-14T10:18:24;22.50;99.90
60868;DHT22;46702;48.370;10.794;2023-06-14T10:21:18;22.80;99.90
60868;DHT22;46702;48.370;10.794;2023-06-14T10:23:48;22.90;99.90
60868;DHT22;46702;48.370;10.794;2023-06-14T10:26:22;23.00;99.90
60868;DHT22;46702;48.370;10.794;2023-06-14T10:29:10;23.00;99.90
60868;DHT22;46702;48.370;10.794;2023-06-14T10:31:47;23.00;99.90
60868;DHT22;46702;48.370;10.794;2023-06-14T10:37:03;23.50;99.90
60868;DHT22;46702;48.370;10.794;2023-06-14T10:39:30;23.10;99.90
60868;DHT22;46702;48.370;10.794;2023-06-14T10:41:57;22.50;99.90
60868;DHT22;46702;48.370;10.794;2023-06-14T10:46:52;21.70;99.90
60868;DHT22;46702;48.370;10.794;2023-06-14T10:49:18;21.20;99.90
60868;DHT22;46702;48.370;10.794;2023-06-14T10:51:55;21.10;99.90
60868;DHT22;46702;48.370;10.794;2023-06-14T10:54:22;21.70;99.90
60868;DHT22;46702;48.370;10.794;2023-06-14T10:56:53;22.10;99.90
60868;DHT22;46702;48.370;10.794;2023-06-14T10:59:20;22.70;99.90
60868;DHT22;46702;48.370;10.794;2023-06-14T11:04:21;23.20;99.90
60868;DHT22;46702;48.370;10.794;2023-06-14T11:06:48;23.00;99.90
60868;DHT22;46702;48.370;10.794;2023-06-14T11:12:02;22.70;99.90
60868;DHT22;46702;48.370;10.794;2023-06-14T11:14:31;22.10;99.90
60868;DHT22;46702;48.370;10.794;2023-06-14T11:16:57;22.20;99.90
60868;DHT22;46702;48.370;10.794;2023-06-14T11:19:22;22.60;99.90
60868;DHT22;46702;48.370;10.794;2023-06-14T11:21:48;22.80;99.90
60868;DHT22;46702;48.370;10.794;2023-06-14T11:24:14;22.60;99.90
60868;DHT22;46702;48.370;10.794;2023-06-14T11:26:40;22.70;99.90
60868;DHT22;46702;48.370;10.794;2023-06-14T11:29:06;22.80;99.90
60868;DHT22;46702;48.370;10.794;2023-06-14T11:31:32;22.70;99.90
60868;DHT22;46702;48.370;10.794;2023-06-14T11:33:59;22.50;99.90
60868;DHT22;46702;48.370;10.794;2023-06-14T11:36:30;22.40;99.90
60868;DHT22;46702;48.370;10.794;2023-06-14T11:39:14;21.90;99.90
60868;DHT22;46702;48.370;10.794;2023-06-14T11:41:44;21.60;99.90
60868;DHT22;46702;48.370;10.794;2023-06-14T11:44:10;21.40;99.90
60868;DHT22;46702;48.370;10.794;2023-06-14T11:46:37;21.20;99.90
60868;DHT22;46702;48.370;10.794;2023-06-14T11:49:03;21.10;99.90
60868;DHT22;46702;48.370;10.794;2023-06-14T11:51:33;21.30;99.90
60868;DHT22;46702;48.370;10.794;2023-06-14T11:54:01;21.70;99.90
60868;DHT22;46702;48.370;10.794;2023-06-14T11:56:28;21.70;99.90
60868;DHT22;46702;48.370;10.794;2023-06-14T11:58:54;21.50;99.90
60868;DHT22;46702;48.370;10.794;2023-06-14T12:01:22;21.70;99.90
60868;DHT22;46702;48.370;10.794;2023-06-14T12:03:53;21.70;99.90
60868;DHT22;46702;48.370;10.794;2023-06-14T12:06:29;21.70;99.90
60868;DHT22;46702;48.370;10.794;2023-06-14T12:08:58;21.50;99.90
60868;DHT22;46702;48.370;10.794;2023-06-14T12:11:31;21.40;99.90
60868;DHT22;46702;48.370;10.794;2023-06-14T12:13:57;21.10;99.90
60868;DHT22;46702;48.370;10.794;2023-06-14T12:16:30;20.90;99.90
60868;DHT22;46702;48.370;10.794;2023-06-14T12:19:00;20.80;99.90
60868;DHT22;46702;48.370;10.794;2023-06-14T12:21:26;20.70;99.90
60868;DHT22;46702;48.370;10.794;2023-06-14T12:23:53;20.60;99.90
60868;DHT22;46702;48.370;10.794;2023-06-14T12:26:20;20.70;99.90
60868;DHT22;46702;48.370;10.794;2023-06-14T12:28:47;21.30;99.90
60868;DHT22;46702;48.370;10.794;2023-06-14T12:31:15;21.90;99.90
60868;DHT22;46702;48.370;10.794;2023-06-14T12:33:41;22.00;99.90
60868;DHT22;46702;48.370;10.794;2023-06-14T12:36:08;22.30;99.90
60868;DHT22;46702;48.370;10.794;2023-06-14T12:38:34;22.60;99.90
60868;DHT22;46702;48.370;10.794;2023-06-14T12:41:00;22.80;99.90
60868;DHT22;46702;48.370;10.794;2023-06-14T12:43:26;22.70;99.90
60868;DHT22;46702;48.370;10.794;2023-06-14T12:45:51;22.90;99.90
60868;DHT22;46702;48.370;10.794;2023-06-14T12:48:17;22.90;99.90
60868;DHT22;46702;48.370;10.794;2023-06-14T12:50:42;22.40;99.90
60868;DHT22;46702;48.370;10.794;2023-06-14T12:53:08;22.40;99.90
60868;DHT22;46702;48.370;10.794;2023-06-14T12:55:34;23.10;99.90
60868;DHT22;46702;48.370;10.794;2023-06-14T12:57:59;23.10;99.90
60868;DHT22;46702;48.370;10.794;2023-06-14T13:00:25;23.30;99.90
60868;DHT22;46702;48.370;10.794;2023-06-14T13:02:58;23.10;99.90
60868;DHT22;46702;48.370;10.794;2023-06-14T13:05:24;23.00;99.90
60868;DHT22;46702;48.370;10.794;2023-06-14T13:07:50;23.20;99.90
60868;DHT22;46702;48.370;10.794;2023-06-14T13:10:17;23.30;99.90
60868;DHT22;46702;48.370;10.794;2023-06-14T13:12:42;23.30;99.90
60868;DHT22;46702;48.370;10.794;2023-06-14T13:15:08;22.90;99.90
60868;DHT22;46702;48.370;10.794;2023-06-14T13:17:35;22.70;99.90
60868;DHT22;46702;48.370;10.794;2023-06-14T13:20:07;22.30;99.90
60868;DHT22;46702;48.370;10.794;2023-06-14T13:22:34;21.80;99.90
60868;DHT22;46702;48.370;10.794;2023-06-14T13:25:00;21.60;99.90
60868;DHT22;46702;48.370;10.794;2023-06-14T13:27:26;21.60;99.90
60868;DHT22;46702;48.370;10.794;2023-06-14T13:29:52;22.20;99.90
60868;DHT22;46702;48.370;10.794;2023-06-14T13:32:18;22.70;99.90
60868;DHT22;46702;48.370;10.794;2023-06-14T13:34:43;23.10;99.90
60868;DHT22;46702;48.370;10.794;2023-06-14T13:37:09;23.30;99.90
60868;DHT22;46702;48.370;10.794;2023-06-14T13:39:34;23.10;99.90
60868;DHT22;46702;48.370;10.794;2023-06-14T13:42:03;23.40;99.90
60868;DHT22;46702;48.370;10.794;2023-06-14T13:44:28;23.70;99.90
60868;DHT22;46702;48.370;10.794;2023-06-14T13:46:54;23.60;99.90
60868;DHT22;46702;48.370;10.794;2023-06-14T13:49:19;23.50;99.90
60868;DHT22;46702;48.370;10.794;2023-06-14T13:51:46;23.40;99.90
60868;DHT22;46702;48.370;10.794;2023-06-14T13:54:13;23.30;99.90
60868;DHT22;46702;48.370;10.794;2023-06-14T13:56:42;23.70;99.90
60868;DHT22;46702;48.370;10.794;2023-06-14T13:59:07;24.00;99.90
60868;DHT22;46702;48.370;10.794;2023-06-14T14:01:33;24.00;99.90
60868;DHT22;46702;48.370;10.794;2023-06-14T14:03:59;23.90;99.90
60868;DHT22;46702;48.370;10.794;2023-06-14T14:06:26;23.50;99.90
60868;DHT22;46702;48.370;10.794;2023-06-14T14:08:52;23.50;99.90
60868;DHT22;46702;48.370;10.794;2023-06-14T14:11:18;23.00;99.90
60868;DHT22;46702;48.370;10.794;2023-06-14T14:13:44;22.50;99.90
60868;DHT22;46702;48.370;10.794;2023-06-14T14:16:10;21.90;99.90
60868;DHT22;46702;48.370;10.794;2023-06-14T14:18:36;21.70;99.90
60868;DHT22;46702;48.370;10.794;2023-06-14T14:21:05;21.50;99.90
60868;DHT22;46702;48.370;10.794;2023-06-14T14:23:31;21.50;99.90
60868;DHT22;46702;48.370;10.794;2023-06-14T14:25:56;21.60;99.90
60868;DHT22;46702;48.370;10.794;2023-06-14T14:28:22;21.70;99.90
60868;DHT22;46702;48.370;10.794;2023-06-14T14:30:48;22.10;99.90
60868;DHT22;46702;48.370;10.794;2023-06-14T14:33:14;22.40;99.90
60868;DHT22;46702;48.370;10.794;2023-06-14T14:35:43;22.80;99.90
60868;DHT22;46702;48.370;10.794;2023-06-14T14:38:14;22.80;99.90
60868;DHT22;46702;48.370;10.794;2023-06-14T14:40:41;23.30;99.90
60868;DHT22;46702;48.370;10.794;2023-06-14T14:43:07;23.40;99.90
60868;DHT22;46702;48.370;10.794;2023-06-14T14:45:32;23.90;99.90
60868;DHT22;46702;48.370;10.794;2023-06-14T14:47:58;24.20;99.90
60868;DHT22;46702;48.370;10.794;2023-06-14T14:50:25;24.20;99.90
60868;DHT22;46702;48.370;10.794;2023-06-14T14:52:51;24.00;99.90
60868;DHT22;46702;48.370;10.794;2023-06-14T14:55:16;24.00;99.90
60868;DHT22;46702;48.370;10.794;2023-06-14T14:57:42;23.80;99.90
60868;DHT22;46702;48.370;10.794;2023-06-14T15:00:08;23.60;99.90
60868;DHT22;46702;48.370;10.794;2023-06-14T15:02:35;23.30;99.90
60868;DHT22;46702;48.370;10.794;2023-06-14T15:05:00;23.30;99.90
60868;DHT22;46702;48.370;10.794;2023-06-14T15:07:28;23.40;99.90
60868;DHT22;46702;48.370;10.794;2023-06-14T15:09:54;23.50;99.90
60868;DHT22;46702;48.370;10.794;2023-06-14T15:12:21;23.60;99.90
60868;DHT22;46702;48.370;10.794;2023-06-14T15:14:52;23.70;99.90
60868;DHT22;46702;48.370;10.794;2023-06-14T15:17:18;23.80;99.90
60868;DHT22;46702;48.370;10.794;2023-06-14T15:19:45;23.80;99.90
60868;DHT22;46702;48.370;10.794;2023-06-14T15:22:11;23.80;99.90
60868;DHT22;46702;48.370;10.794;2023-06-14T15:24:37;23.70;99.90
60868;DHT22;46702;48.370;10.794;2023-06-14T15:27:03;23.80;99.90
60868;DHT22;46702;48.370;10.794;2023-06-14T15:29:28;23.70;99.90
60868;DHT22;46702;48.370;10.794;2023-06-14T15:31:54;23.50;99.90
60868;DHT22;46702;48.370;10.794;2023-06-14T15:34:23;23.30;99.90